sensor_id;sensor_type;location;lat;lon;timestamp;P1;P2;P0
80413;PMS5003;69758;52.580;13.068;2023-08-06T00:00:40;12;12;
80413;PMS5003;69758;52.580;13.068;2023-08-06T00:03:06;14;13;
80413;PMS5003;69758;52.580;13.068;2023-08-06T00:05:30;15;15;
80413;PMS5003;69758;52.580;13.068;2023-08-06T00:07:56;12;12;
80413;PMS5003;69758;52.580;13.068;2023-08-06T00:10:21;16;16;
80413;PMS5003;69758;52.580;13.068;2023-08-06T00:12:46;12;12;
80413;PMS5003;69758;52.580;13.068;2023-08-06T00:15:12;13;13;
80413;PMS5003;69758;52.580;13.068;2023-08-06T00:17:37;11;11;
80413;PMS5003;69758;52.580;13.068;2023-08-06T00:20:02;14;13;
80413;PMS5003;69758;52.580;13.068;2023-08-06T00:22:27;13;11;
80413;PMS5003;69758;52.580;13.068;2023-08-06T00:24:52;12;12;
80413;PMS5003;69758;52.580;13.068;2023-08-06T00:27:17;12;12;
80413;PMS5003;69758;52.580;13.068;2023-08-06T00:29:43;14;14;
80413;PMS5003;69758;52.580;13.068;2023-08-06T00:32:08;12;12;
80413;PMS5003;69758;52.580;13.068;2023-08-06T00:34:39;15;15;
80413;PMS5003;69758;52.580;13.068;2023-08-06T00:36:59;18;16;
80413;PMS5003;69758;52.580;13.068;2023-08-06T00:39:24;12;12;
80413;PMS5003;69758;52.580;13.068;2023-08-06T00:41:50;13;12;
80413;PMS5003;69758;52.580;13.068;2023-08-06T00:44:15;12;12;
80413;PMS5003;69758;52.580;13.068;2023-08-06T00:46:40;14;14;
80413;PMS5003;69758;52.580;13.068;2023-08-06T00:49:06;13;13;
80413;PMS5003;69758;52.580;13.068;2023-08-06T00:51:31;15;15;
80413;PMS5003;69758;52.580;13.068;2023-08-06T00:53:56;15;15;
80413;PMS5003;69758;52.580;13.068;2023-08-06T00:56:21;12;11;
80413;PMS5003;69758;52.580;13.068;2023-08-06T00:58:46;18;18;
80413;PMS5003;69758;52.580;13.068;2023-08-06T01:01:12;14;14;
80413;PMS5003;69758;52.580;13.068;2023-08-06T01:03:37;12;11;
80413;PMS5003;69758;52.580;13.068;2023-08-06T01:06:03;19;18;
80413;PMS5003;69758;52.580;13.068;2023-08-06T01:08:39;14;14;
80413;PMS5003;69758;52.580;13.068;2023-08-06T01:10:58;16;16;
80413;PMS5003;69758;52.580;13.068;2023-08-06T01:13:23;16;16;
80413;PMS5003;69758;52.580;13.068;2023-08-06T01:15:46;19;19;
80413;PMS5003;69758;52.580;13.068;2023-08-06T01:18:10;17;17;
80413;PMS5003;69758;52.580;13.068;2023-08-06T01:20:35;13;13;
80413;PMS5003;69758;52.580;13.068;2023-08-06T01:23:00;18;18;
80413;PMS5003;69758;52.580;13.068;2023-08-06T01:25:30;14;14;
80413;PMS5003;69758;52.580;13.068;2023-08-06T01:27:51;16;16;
80413;PMS5003;69758;52.580;13.068;2023-08-06T01:30:17;16;14;
80413;PMS5003;69758;52.580;13.068;2023-08-06T01:32:43;17;15;
80413;PMS5003;69758;52.580;13.068;2023-08-06T01:35:08;14;14;
80413;PMS5003;69758;52.580;13.068;2023-08-06T01:37:34;17;16;
80413;PMS5003;69758;52.580;13.068;2023-08-06T01:39:59;15;15;
80413;PMS5003;69758;52.580;13.068;2023-08-06T01:42:24;16;15;
80413;PMS5003;69758;52.580;13.068;2023-08-06T01:44:49;15;15;
80413;PMS5003;69758;52.580;13.068;2023-08-06T01:47:14;15;15;
80413;PMS5003;69758;52.580;13.068;2023-08-06T01:49:39;15;15;
80413;PMS5003;69758;52.580;13.068;2023-08-06T01:52:05;14;14;
80413;PMS5003;69758;52.580;13.068;2023-08-06T01:54:30;14;14;
80413;PMS5003;69758;52.580;13.068;2023-08-06T01:56:55;14;13;
80413;PMS5003;69758;52.580;13.068;2023-08-06T01:59:21;17;16;
80413;PMS5003;69758;52.580;13.068;2023-08-06T02:01:47;14;14;
80413;PMS5003;69758;52.580;13.068;2023-08-06T02:04:12;14;13;
80413;PMS5003;69758;52.580;13.068;2023-08-06T02:06:37;16;16;
80413;PMS5003;69758;52.580;13.068;2023-08-06T02:09:03;13;13;
80413;PMS5003;69758;52.580;13.068;2023-08-06T02:11:29;15;15;
80413;PMS5003;69758;52.580;13.068;2023-08-06T02:13:53;17;17;
80413;PMS5003;69758;52.580;13.068;2023-08-06T02:16:19;13;13;
80413;PMS5003;69758;52.580;13.068;2023-08-06T02:18:45;13;13;
80413;PMS5003;69758;52.580;13.068;2023-08-06T02:21:09;15;15;
80413;PMS5003;69758;52.580;13.068;2023-08-06T02:23:35;15;15;
80413;PMS5003;69758;52.580;13.068;2023-08-06T02:26:00;15;15;
80413;PMS5003;69758;52.580;13.068;2023-08-06T02:28:26;15;15;
80413;PMS5003;69758;52.580;13.068;2023-08-06T02:30:52;15;14;
80413;PMS5003;69758;52.580;13.068;2023-08-06T02:33:17;16;16;
80413;PMS5003;69758;52.580;13.068;2023-08-06T02:35:42;14;14;
80413;PMS5003;69758;52.580;13.068;2023-08-06T02:38:08;17;17;
80413;PMS5003;69758;52.580;13.068;2023-08-06T02:40:33;14;13;
80413;PMS5003;69758;52.580;13.068;2023-08-06T02:42:58;18;18;
80413;PMS5003;69758;52.580;13.068;2023-08-06T02:45:23;16;16;
80413;PMS5003;69758;52.580;13.068;2023-08-06T02:47:49;18;18;
80413;PMS5003;69758;52.580;13.068;2023-08-06T02:50:14;14;14;
80413;PMS5003;69758;52.580;13.068;2023-08-06T02:52:40;15;15;
80413;PMS5003;69758;52.580;13.068;2023-08-06T02:55:05;15;15;
80413;PMS5003;69758;52.580;13.068;2023-08-06T02:57:30;16;16;
80413;PMS5003;69758;52.580;13.068;2023-08-06T02:59:55;16;16;
80413;PMS5003;69758;52.580;13.068;2023-08-06T03:02:21;16;15;
80413;PMS5003;69758;52.580;13.068;2023-08-06T03:04:46;15;15;
80413;PMS5003;69758;52.580;13.068;2023-08-06T03:07:11;17;17;
80413;PMS5003;69758;52.580;13.068;2023-08-06T03:09:36;16;15;
80413;PMS5003;69758;52.580;13.068;2023-08-06T03:12:01;16;16;
80413;PMS5003;69758;52.580;13.068;2023-08-06T03:14:26;14;14;
80413;PMS5003;69758;52.580;13.068;2023-08-06T03:16:51;17;17;
80413;PMS5003;69758;52.580;13.068;2023-08-06T03:19:17;14;14;
80413;PMS5003;69758;52.580;13.068;2023-08-06T03:21:42;19;18;
80413;PMS5003;69758;52.580;13.068;2023-08-06T03:24:07;15;15;
80413;PMS5003;69758;52.580;13.068;2023-08-06T03:26:32;15;15;
80413;PMS5003;69758;52.580;13.068;2023-08-06T03:28:57;13;12;
80413;PMS5003;69758;52.580;13.068;2023-08-06T03:31:22;16;16;
80413;PMS5003;69758;52.580;13.068;2023-08-06T03:33:48;12;12;
80413;PMS5003;69758;52.580;13.068;2023-08-06T03:36:13;16;16;
80413;PMS5003;69758;52.580;13.068;2023-08-06T03:38:39;12;12;
80413;PMS5003;69758;52.580;13.068;2023-08-06T03:41:04;16;16;
80413;PMS5003;69758;52.580;13.068;2023-08-06T03:43:29;12;12;
80413;PMS5003;69758;52.580;13.068;2023-08-06T03:45:54;14;14;
80413;PMS5003;69758;52.580;13.068;2023-08-06T03:48:19;17;17;
80413;PMS5003;69758;52.580;13.068;2023-08-06T03:50:44;12;11;
80413;PMS5003;69758;52.580;13.068;2023-08-06T03:53:10;14;14;
80413;PMS5003;69758;52.580;13.068;2023-08-06T03:55:35;12;12;
80413;PMS5003;69758;52.580;13.068;2023-08-06T04:00:27;13;13;
80413;PMS5003;69758;52.580;13.068;2023-08-06T04:02:51;16;16;
80413;PMS5003;69758;52.580;13.068;2023-08-06T04:05:17;12;12;
80413;PMS5003;69758;52.580;13.068;2023-08-06T04:07:41;14;13;
80413;PMS5003;69758;52.580;13.068;2023-08-06T04:10:06;13;13;
80413;PMS5003;69758;52.580;13.068;2023-08-06T04:12:32;15;14;
80413;PMS5003;69758;52.580;13.068;2023-08-06T04:14:57;16;15;
80413;PMS5003;69758;52.580;13.068;2023-08-06T04:17:22;11;10;
80413;PMS5003;69758;52.580;13.068;2023-08-06T04:19:49;13;13;
80413;PMS5003;69758;52.580;13.068;2023-08-06T04:22:12;14;14;
80413;PMS5003;69758;52.580;13.068;2023-08-06T04:24:37;13;13;
80413;PMS5003;69758;52.580;13.068;2023-08-06T04:27:03;16;15;
80413;PMS5003;69758;52.580;13.068;2023-08-06T04:31:54;12;12;
80413;PMS5003;69758;52.580;13.068;2023-08-06T04:34:18;10;10;
80413;PMS5003;69758;52.580;13.068;2023-08-06T04:36:43;11;11;
80413;PMS5003;69758;52.580;13.068;2023-08-06T04:39:09;18;18;
80413;PMS5003;69758;52.580;13.068;2023-08-06T04:41:34;15;14;
80413;PMS5003;69758;52.580;13.068;2023-08-06T04:44:00;13;13;
80413;PMS5003;69758;52.580;13.068;2023-08-06T04:46:25;16;16;
80413;PMS5003;69758;52.580;13.068;2023-08-06T04:48:51;12;12;
80413;PMS5003;69758;52.580;13.068;2023-08-06T04:51:16;16;15;
80413;PMS5003;69758;52.580;13.068;2023-08-06T04:53:41;13;13;
80413;PMS5003;69758;52.580;13.068;2023-08-06T04:56:06;16;16;
80413;PMS5003;69758;52.580;13.068;2023-08-06T04:58:31;14;13;
80413;PMS5003;69758;52.580;13.068;2023-08-06T05:00:57;15;15;
80413;PMS5003;69758;52.580;13.068;2023-08-06T05:03:22;15;14;
80413;PMS5003;69758;52.580;13.068;2023-08-06T05:05:48;18;17;
80413;PMS5003;69758;52.580;13.068;2023-08-06T05:08:14;14;14;
80413;PMS5003;69758;52.580;13.068;2023-08-06T05:10:44;15;13;
80413;PMS5003;69758;52.580;13.068;2023-08-06T05:13:06;17;16;
80413;PMS5003;69758;52.580;13.068;2023-08-06T05:15:30;16;15;
80413;PMS5003;69758;52.580;13.068;2023-08-06T05:17:55;15;14;
80413;PMS5003;69758;52.580;13.068;2023-08-06T05:20:21;14;14;
80413;PMS5003;69758;52.580;13.068;2023-08-06T05:22:51;14;14;
80413;PMS5003;69758;52.580;13.068;2023-08-06T05:25:12;16;15;
80413;PMS5003;69758;52.580;13.068;2023-08-06T05:27:41;15;14;
80413;PMS5003;69758;52.580;13.068;2023-08-06T05:30:02;12;12;
80413;PMS5003;69758;52.580;13.068;2023-08-06T05:32:26;13;13;
80413;PMS5003;69758;52.580;13.068;2023-08-06T05:34:56;12;12;
80413;PMS5003;69758;52.580;13.068;2023-08-06T05:37:17;15;14;
80413;PMS5003;69758;52.580;13.068;2023-08-06T05:39:43;13;12;
80413;PMS5003;69758;52.580;13.068;2023-08-06T05:42:08;14;13;
80413;PMS5003;69758;52.580;13.068;2023-08-06T05:44:34;13;13;
80413;PMS5003;69758;52.580;13.068;2023-08-06T05:46:59;13;13;
80413;PMS5003;69758;52.580;13.068;2023-08-06T05:49:25;11;11;
80413;PMS5003;69758;52.580;13.068;2023-08-06T05:51:50;12;12;
80413;PMS5003;69758;52.580;13.068;2023-08-06T05:54:15;12;12;
80413;PMS5003;69758;52.580;13.068;2023-08-06T05:56:41;14;12;
80413;PMS5003;69758;52.580;13.068;2023-08-06T05:59:06;12;12;
80413;PMS5003;69758;52.580;13.068;2023-08-06T06:01:31;13;13;
80413;PMS5003;69758;52.580;13.068;2023-08-06T06:03:57;12;12;
80413;PMS5003;69758;52.580;13.068;2023-08-06T06:06:22;15;14;
80413;PMS5003;69758;52.580;13.068;2023-08-06T06:08:48;12;12;
80413;PMS5003;69758;52.580;13.068;2023-08-06T06:11:13;15;14;
80413;PMS5003;69758;52.580;13.068;2023-08-06T06:13:39;13;13;
80413;PMS5003;69758;52.580;13.068;2023-08-06T06:16:04;11;11;
80413;PMS5003;69758;52.580;13.068;2023-08-06T06:18:29;15;14;
80413;PMS5003;69758;52.580;13.068;2023-08-06T06:21:00;12;11;
80413;PMS5003;69758;52.580;13.068;2023-08-06T06:23:21;13;13;
80413;PMS5003;69758;52.580;13.068;2023-08-06T06:25:47;12;11;
80413;PMS5003;69758;52.580;13.068;2023-08-06T06:28:10;12;12;
80413;PMS5003;69758;52.580;13.068;2023-08-06T06:30:35;16;15;
80413;PMS5003;69758;52.580;13.068;2023-08-06T06:33:00;12;12;
80413;PMS5003;69758;52.580;13.068;2023-08-06T06:35:25;11;11;
80413;PMS5003;69758;52.580;13.068;2023-08-06T06:37:50;10;10;
80413;PMS5003;69758;52.580;13.068;2023-08-06T06:40:15;13;10;
80413;PMS5003;69758;52.580;13.068;2023-08-06T06:42:40;11;11;
80413;PMS5003;69758;52.580;13.068;2023-08-06T06:45:07;14;12;
80413;PMS5003;69758;52.580;13.068;2023-08-06T06:47:31;14;14;
80413;PMS5003;69758;52.580;13.068;2023-08-06T06:50:04;11;11;
80413;PMS5003;69758;52.580;13.068;2023-08-06T06:52:23;9;9;
80413;PMS5003;69758;52.580;13.068;2023-08-06T06:54:47;11;11;
80413;PMS5003;69758;52.580;13.068;2023-08-06T06:57:13;11;11;
80413;PMS5003;69758;52.580;13.068;2023-08-06T06:59:38;12;12;
80413;PMS5003;69758;52.580;13.068;2023-08-06T07:02:03;11;11;
80413;PMS5003;69758;52.580;13.068;2023-08-06T07:04:28;12;12;
80413;PMS5003;69758;52.580;13.068;2023-08-06T07:06:54;13;12;
80413;PMS5003;69758;52.580;13.068;2023-08-06T07:09:19;12;12;
80413;PMS5003;69758;52.580;13.068;2023-08-06T07:11:44;13;12;
80413;PMS5003;69758;52.580;13.068;2023-08-06T07:14:09;12;12;
80413;PMS5003;69758;52.580;13.068;2023-08-06T07:16:35;13;12;
80413;PMS5003;69758;52.580;13.068;2023-08-06T07:19:00;12;12;
80413;PMS5003;69758;52.580;13.068;2023-08-06T07:21:25;15;14;
80413;PMS5003;69758;52.580;13.068;2023-08-06T07:23:51;12;12;
80413;PMS5003;69758;52.580;13.068;2023-08-06T07:26:16;15;14;
80413;PMS5003;69758;52.580;13.068;2023-08-06T07:28:41;12;12;
80413;PMS5003;69758;52.580;13.068;2023-08-06T07:31:07;11;11;
80413;PMS5003;69758;52.580;13.068;2023-08-06T07:33:32;12;12;
80413;PMS5003;69758;52.580;13.068;2023-08-06T07:35:57;10;10;
80413;PMS5003;69758;52.580;13.068;2023-08-06T07:38:22;12;12;
80413;PMS5003;69758;52.580;13.068;2023-08-06T07:40:48;13;12;
80413;PMS5003;69758;52.580;13.068;2023-08-06T07:43:13;13;11;
80413;PMS5003;69758;52.580;13.068;2023-08-06T07:45:38;13;12;
80413;PMS5003;69758;52.580;13.068;2023-08-06T07:48:03;11;11;
80413;PMS5003;69758;52.580;13.068;2023-08-06T07:50:28;14;14;
80413;PMS5003;69758;52.580;13.068;2023-08-06T07:52:53;13;13;
80413;PMS5003;69758;52.580;13.068;2023-08-06T07:55:19;11;11;
80413;PMS5003;69758;52.580;13.068;2023-08-06T07:57:43;11;11;
80413;PMS5003;69758;52.580;13.068;2023-08-06T08:00:09;11;11;
80413;PMS5003;69758;52.580;13.068;2023-08-06T08:02:39;15;15;
80413;PMS5003;69758;52.580;13.068;2023-08-06T08:04:59;12;11;
80413;PMS5003;69758;52.580;13.068;2023-08-06T08:07:24;11;11;
80413;PMS5003;69758;52.580;13.068;2023-08-06T08:09:49;14;14;
80413;PMS5003;69758;52.580;13.068;2023-08-06T08:12:15;17;15;
80413;PMS5003;69758;52.580;13.068;2023-08-06T08:14:40;13;13;
80413;PMS5003;69758;52.580;13.068;2023-08-06T08:17:05;15;13;
80413;PMS5003;69758;52.580;13.068;2023-08-06T08:19:30;13;13;
80413;PMS5003;69758;52.580;13.068;2023-08-06T08:21:55;21;20;
80413;PMS5003;69758;52.580;13.068;2023-08-06T08:24:23;15;14;
80413;PMS5003;69758;52.580;13.068;2023-08-06T08:26:46;17;17;
80413;PMS5003;69758;52.580;13.068;2023-08-06T08:29:11;12;12;
80413;PMS5003;69758;52.580;13.068;2023-08-06T08:31:36;14;12;
80413;PMS5003;69758;52.580;13.068;2023-08-06T08:34:02;11;11;
80413;PMS5003;69758;52.580;13.068;2023-08-06T08:36:27;12;12;
80413;PMS5003;69758;52.580;13.068;2023-08-06T08:38:52;17;16;
80413;PMS5003;69758;52.580;13.068;2023-08-06T08:41:17;15;14;
80413;PMS5003;69758;52.580;13.068;2023-08-06T08:43:42;13;13;
80413;PMS5003;69758;52.580;13.068;2023-08-06T08:46:09;13;12;
80413;PMS5003;69758;52.580;13.068;2023-08-06T08:48:33;12;12;
80413;PMS5003;69758;52.580;13.068;2023-08-06T08:50:58;13;13;
80413;PMS5003;69758;52.580;13.068;2023-08-06T08:53:24;11;11;
80413;PMS5003;69758;52.580;13.068;2023-08-06T08:55:50;15;15;
80413;PMS5003;69758;52.580;13.068;2023-08-06T08:58:16;13;13;
80413;PMS5003;69758;52.580;13.068;2023-08-06T09:00:40;12;12;
80413;PMS5003;69758;52.580;13.068;2023-08-06T09:03:06;13;13;
80413;PMS5003;69758;52.580;13.068;2023-08-06T09:05:31;15;15;
80413;PMS5003;69758;52.580;13.068;2023-08-06T09:07:58;14;13;
80413;PMS5003;69758;52.580;13.068;2023-08-06T09:10:22;13;12;
80413;PMS5003;69758;52.580;13.068;2023-08-06T09:12:47;16;16;
80413;PMS5003;69758;52.580;13.068;2023-08-06T09:15:12;12;12;
80413;PMS5003;69758;52.580;13.068;2023-08-06T09:17:38;14;13;
80413;PMS5003;69758;52.580;13.068;2023-08-06T09:22:33;12;12;
80413;PMS5003;69758;52.580;13.068;2023-08-06T09:24:53;13;13;
80413;PMS5003;69758;52.580;13.068;2023-08-06T09:27:19;12;12;
80413;PMS5003;69758;52.580;13.068;2023-08-06T09:29:45;13;13;
80413;PMS5003;69758;52.580;13.068;2023-08-06T09:32:10;15;14;
80413;PMS5003;69758;52.580;13.068;2023-08-06T09:34:35;14;13;
80413;PMS5003;69758;52.580;13.068;2023-08-06T09:37:00;12;12;
80413;PMS5003;69758;52.580;13.068;2023-08-06T09:44:16;14;14;
80413;PMS5003;69758;52.580;13.068;2023-08-06T09:46:41;11;11;
80413;PMS5003;69758;52.580;13.068;2023-08-06T09:49:07;13;12;
80413;PMS5003;69758;52.580;13.068;2023-08-06T09:51:31;17;17;
80413;PMS5003;69758;52.580;13.068;2023-08-06T09:53:56;14;13;
80413;PMS5003;69758;52.580;13.068;2023-08-06T09:56:21;14;14;
80413;PMS5003;69758;52.580;13.068;2023-08-06T09:58:47;14;14;
80413;PMS5003;69758;52.580;13.068;2023-08-06T10:01:11;11;11;
80413;PMS5003;69758;52.580;13.068;2023-08-06T10:03:37;14;14;
80413;PMS5003;69758;52.580;13.068;2023-08-06T10:06:02;11;11;
80413;PMS5003;69758;52.580;13.068;2023-08-06T10:08:27;17;16;
80413;PMS5003;69758;52.580;13.068;2023-08-06T10:10:53;15;15;
80413;PMS5003;69758;52.580;13.068;2023-08-06T10:13:18;14;14;
80413;PMS5003;69758;52.580;13.068;2023-08-06T10:15:43;20;20;
80413;PMS5003;69758;52.580;13.068;2023-08-06T10:18:08;13;13;
80413;PMS5003;69758;52.580;13.068;2023-08-06T10:20:34;14;14;
80413;PMS5003;69758;52.580;13.068;2023-08-06T10:23:00;12;12;
80413;PMS5003;69758;52.580;13.068;2023-08-06T10:25:30;14;14;
80413;PMS5003;69758;52.580;13.068;2023-08-06T10:27:53;14;14;
80413;PMS5003;69758;52.580;13.068;2023-08-06T10:30:22;13;13;
80413;PMS5003;69758;52.580;13.068;2023-08-06T10:32:46;12;12;
80413;PMS5003;69758;52.580;13.068;2023-08-06T10:35:06;13;12;
80413;PMS5003;69758;52.580;13.068;2023-08-06T10:37:34;16;14;
80413;PMS5003;69758;52.580;13.068;2023-08-06T10:39:56;12;12;
80413;PMS5003;69758;52.580;13.068;2023-08-06T10:42:21;14;14;
80413;PMS5003;69758;52.580;13.068;2023-08-06T10:49:36;15;15;
80413;PMS5003;69758;52.580;13.068;2023-08-06T10:52:01;13;13;
80413;PMS5003;69758;52.580;13.068;2023-08-06T10:54:26;15;15;
80413;PMS5003;69758;52.580;13.068;2023-08-06T10:56:51;14;14;
80413;PMS5003;69758;52.580;13.068;2023-08-06T10:59:17;11;11;
80413;PMS5003;69758;52.580;13.068;2023-08-06T11:04:07;11;11;
80413;PMS5003;69758;52.580;13.068;2023-08-06T11:06:32;14;14;
80413;PMS5003;69758;52.580;13.068;2023-08-06T11:08:58;17;17;
80413;PMS5003;69758;52.580;13.068;2023-08-06T11:11:23;15;14;
80413;PMS5003;69758;52.580;13.068;2023-08-06T11:13:49;15;15;
80413;PMS5003;69758;52.580;13.068;2023-08-06T11:16:13;15;14;
80413;PMS5003;69758;52.580;13.068;2023-08-06T11:18:39;12;12;
80413;PMS5003;69758;52.580;13.068;2023-08-06T11:21:04;14;14;
80413;PMS5003;69758;52.580;13.068;2023-08-06T11:23:29;18;18;
80413;PMS5003;69758;52.580;13.068;2023-08-06T11:25:55;18;18;
80413;PMS5003;69758;52.580;13.068;2023-08-06T11:28:20;14;14;
80413;PMS5003;69758;52.580;13.068;2023-08-06T11:30:45;16;16;
80413;PMS5003;69758;52.580;13.068;2023-08-06T11:33:10;12;12;
80413;PMS5003;69758;52.580;13.068;2023-08-06T11:35:35;16;16;
80413;PMS5003;69758;52.580;13.068;2023-08-06T11:38:01;14;14;
80413;PMS5003;69758;52.580;13.068;2023-08-06T11:40:26;15;15;
80413;PMS5003;69758;52.580;13.068;2023-08-06T11:42:52;13;13;
80413;PMS5003;69758;52.580;13.068;2023-08-06T11:45:21;18;18;
80413;PMS5003;69758;52.580;13.068;2023-08-06T11:47:49;20;20;
80413;PMS5003;69758;52.580;13.068;2023-08-06T11:50:08;18;18;
80413;PMS5003;69758;52.580;13.068;2023-08-06T11:52:33;15;15;
80413;PMS5003;69758;52.580;13.068;2023-08-06T11:55:00;15;15;
80413;PMS5003;69758;52.580;13.068;2023-08-06T11:57:23;15;15;
80413;PMS5003;69758;52.580;13.068;2023-08-06T11:59:48;15;15;
80413;PMS5003;69758;52.580;13.068;2023-08-06T12:02:13;14;14;
80413;PMS5003;69758;52.580;13.068;2023-08-06T12:07:04;19;19;
80413;PMS5003;69758;52.580;13.068;2023-08-06T12:09:29;20;20;
80413;PMS5003;69758;52.580;13.068;2023-08-06T12:11:55;19;18;
80413;PMS5003;69758;52.580;13.068;2023-08-06T12:14:20;19;19;
80413;PMS5003;69758;52.580;13.068;2023-08-06T12:16:45;17;17;
80413;PMS5003;69758;52.580;13.068;2023-08-06T12:19:10;18;18;
80413;PMS5003;69758;52.580;13.068;2023-08-06T12:21:36;21;20;
80413;PMS5003;69758;52.580;13.068;2023-08-06T12:24:01;18;18;
80413;PMS5003;69758;52.580;13.068;2023-08-06T12:26:26;20;19;
80413;PMS5003;69758;52.580;13.068;2023-08-06T12:28:51;20;18;
80413;PMS5003;69758;52.580;13.068;2023-08-06T12:31:16;17;17;
80413;PMS5003;69758;52.580;13.068;2023-08-06T12:33:41;18;18;
80413;PMS5003;69758;52.580;13.068;2023-08-06T12:36:06;18;18;
80413;PMS5003;69758;52.580;13.068;2023-08-06T12:38:32;16;16;
80413;PMS5003;69758;52.580;13.068;2023-08-06T12:40:57;16;16;
80413;PMS5003;69758;52.580;13.068;2023-08-06T12:43:22;17;16;
80413;PMS5003;69758;52.580;13.068;2023-08-06T12:45:47;16;16;
80413;PMS5003;69758;52.580;13.068;2023-08-06T12:48:13;21;21;
80413;PMS5003;69758;52.580;13.068;2023-08-06T12:50:38;20;18;
80413;PMS5003;69758;52.580;13.068;2023-08-06T12:53:04;17;16;
80413;PMS5003;69758;52.580;13.068;2023-08-06T12:55:29;18;18;
80413;PMS5003;69758;52.580;13.068;2023-08-06T12:57:55;17;16;
80413;PMS5003;69758;52.580;13.068;2023-08-06T13:00:20;22;21;
80413;PMS5003;69758;52.580;13.068;2023-08-06T13:02:45;15;15;
80413;PMS5003;69758;52.580;13.068;2023-08-06T13:05:10;15;15;
80413;PMS5003;69758;52.580;13.068;2023-08-06T13:07:35;15;15;
80413;PMS5003;69758;52.580;13.068;2023-08-06T13:10:00;15;14;
80413;PMS5003;69758;52.580;13.068;2023-08-06T13:12:25;13;13;
80413;PMS5003;69758;52.580;13.068;2023-08-06T13:14:50;12;12;
80413;PMS5003;69758;52.580;13.068;2023-08-06T13:17:15;13;11;
80413;PMS5003;69758;52.580;13.068;2023-08-06T13:19:42;12;12;
80413;PMS5003;69758;52.580;13.068;2023-08-06T13:22:06;13;13;
80413;PMS5003;69758;52.580;13.068;2023-08-06T13:24:31;12;12;
80413;PMS5003;69758;52.580;13.068;2023-08-06T13:26:56;14;14;
80413;PMS5003;69758;52.580;13.068;2023-08-06T13:29:22;14;13;
80413;PMS5003;69758;52.580;13.068;2023-08-06T13:31:47;14;14;
80413;PMS5003;69758;52.580;13.068;2023-08-06T13:34:12;15;14;
80413;PMS5003;69758;52.580;13.068;2023-08-06T13:36:37;10;10;
80413;PMS5003;69758;52.580;13.068;2023-08-06T13:39:03;16;14;
80413;PMS5003;69758;52.580;13.068;2023-08-06T13:41:28;14;13;
80413;PMS5003;69758;52.580;13.068;2023-08-06T13:43:53;14;14;
80413;PMS5003;69758;52.580;13.068;2023-08-06T13:46:20;14;14;
80413;PMS5003;69758;52.580;13.068;2023-08-06T13:48:44;12;12;
80413;PMS5003;69758;52.580;13.068;2023-08-06T13:51:09;14;13;
80413;PMS5003;69758;52.580;13.068;2023-08-06T13:53:34;11;11;
80413;PMS5003;69758;52.580;13.068;2023-08-06T13:55:59;14;14;
80413;PMS5003;69758;52.580;13.068;2023-08-06T13:58:24;13;12;
80413;PMS5003;69758;52.580;13.068;2023-08-06T14:00:50;12;11;
80413;PMS5003;69758;52.580;13.068;2023-08-06T14:03:15;11;11;
80413;PMS5003;69758;52.580;13.068;2023-08-06T14:05:46;11;10;
80413;PMS5003;69758;52.580;13.068;2023-08-06T14:08:22;10;10;
80413;PMS5003;69758;52.580;13.068;2023-08-06T14:10:32;11;11;
80413;PMS5003;69758;52.580;13.068;2023-08-06T14:13:03;10;9;
80413;PMS5003;69758;52.580;13.068;2023-08-06T14:15:26;10;10;
80413;PMS5003;69758;52.580;13.068;2023-08-06T14:17:46;10;9;
80413;PMS5003;69758;52.580;13.068;2023-08-06T14:20:11;10;10;
80413;PMS5003;69758;52.580;13.068;2023-08-06T14:22:37;10;10;
80413;PMS5003;69758;52.580;13.068;2023-08-06T14:25:03;13;13;
80413;PMS5003;69758;52.580;13.068;2023-08-06T14:27:28;12;12;
80413;PMS5003;69758;52.580;13.068;2023-08-06T14:29:58;12;12;
80413;PMS5003;69758;52.580;13.068;2023-08-06T14:32:18;11;11;
80413;PMS5003;69758;52.580;13.068;2023-08-06T14:34:44;14;12;
80413;PMS5003;69758;52.580;13.068;2023-08-06T14:37:09;12;10;
80413;PMS5003;69758;52.580;13.068;2023-08-06T14:39:34;13;13;
80413;PMS5003;69758;52.580;13.068;2023-08-06T14:41:59;15;14;
80413;PMS5003;69758;52.580;13.068;2023-08-06T14:44:24;11;11;
80413;PMS5003;69758;52.580;13.068;2023-08-06T14:46:49;9;9;
80413;PMS5003;69758;52.580;13.068;2023-08-06T14:49:20;8;8;
80413;PMS5003;69758;52.580;13.068;2023-08-06T14:51:39;12;12;
80413;PMS5003;69758;52.580;13.068;2023-08-06T14:54:04;9;8;
80413;PMS5003;69758;52.580;13.068;2023-08-06T14:56:30;11;10;
80413;PMS5003;69758;52.580;13.068;2023-08-06T14:58:55;11;11;
80413;PMS5003;69758;52.580;13.068;2023-08-06T15:01:21;12;11;
80413;PMS5003;69758;52.580;13.068;2023-08-06T15:06:17;11;11;
80413;PMS5003;69758;52.580;13.068;2023-08-06T15:08:37;12;12;
80413;PMS5003;69758;52.580;13.068;2023-08-06T15:11:02;10;10;
80413;PMS5003;69758;52.580;13.068;2023-08-06T15:15:52;10;9;
80413;PMS5003;69758;52.580;13.068;2023-08-06T15:18:17;10;10;
80413;PMS5003;69758;52.580;13.068;2023-08-06T15:20:42;11;11;
80413;PMS5003;69758;52.580;13.068;2023-08-06T15:23:08;10;10;
80413;PMS5003;69758;52.580;13.068;2023-08-06T15:25:33;9;9;
80413;PMS5003;69758;52.580;13.068;2023-08-06T15:27:58;11;11;
80413;PMS5003;69758;52.580;13.068;2023-08-06T15:30:23;9;9;
80413;PMS5003;69758;52.580;13.068;2023-08-06T15:32:48;8;8;
80413;PMS5003;69758;52.580;13.068;2023-08-06T15:35:13;9;8;
80413;PMS5003;69758;52.580;13.068;2023-08-06T15:37:38;10;10;
80413;PMS5003;69758;52.580;13.068;2023-08-06T15:40:03;7;6;
80413;PMS5003;69758;52.580;13.068;2023-08-06T15:42:28;6;6;
80413;PMS5003;69758;52.580;13.068;2023-08-06T15:44:53;6;6;
80413;PMS5003;69758;52.580;13.068;2023-08-06T15:47:18;7;7;
80413;PMS5003;69758;52.580;13.068;2023-08-06T15:49:44;5;5;
80413;PMS5003;69758;52.580;13.068;2023-08-06T15:52:10;6;6;
80413;PMS5003;69758;52.580;13.068;2023-08-06T15:54:34;4;4;
80413;PMS5003;69758;52.580;13.068;2023-08-06T15:57:05;6;6;
80413;PMS5003;69758;52.580;13.068;2023-08-06T15:59:25;5;5;
80413;PMS5003;69758;52.580;13.068;2023-08-06T16:01:50;5;5;
80413;PMS5003;69758;52.580;13.068;2023-08-06T16:04:14;5;5;
80413;PMS5003;69758;52.580;13.068;2023-08-06T16:06:39;4;4;
80413;PMS5003;69758;52.580;13.068;2023-08-06T16:09:04;5;5;
80413;PMS5003;69758;52.580;13.068;2023-08-06T16:11:29;4;4;
80413;PMS5003;69758;52.580;13.068;2023-08-06T16:13:55;4;4;
80413;PMS5003;69758;52.580;13.068;2023-08-06T16:16:20;6;6;